sensor_id;sensor_type;location;lat;lon;timestamp;temperature;humidity
38209;DHT22;24016;52.102;11.584;2023-07-02T00:01:03;16.20;99.90
38209;DHT22;24016;52.102;11.584;2023-07-02T00:03:29;16.20;99.90
38209;DHT22;24016;52.102;11.584;2023-07-02T00:05:54;16.20;99.90
38209;DHT22;24016;52.102;11.584;2023-07-02T00:08:22;16.20;99.90
38209;DHT22;24016;52.102;11.584;2023-07-02T00:10:47;16.30;99.90
38209;DHT22;24016;52.102;11.584;2023-07-02T00:13:13;16.30;99.90
38209;DHT22;24016;52.102;11.584;2023-07-02T00:15:39;16.30;99.90
38209;DHT22;24016;52.102;11.584;2023-07-02T00:18:05;16.20;99.90
38209;DHT22;24016;52.102;11.584;2023-07-02T00:20:30;16.20;99.90
38209;DHT22;24016;52.102;11.584;2023-07-02T00:23:00;16.20;99.90
38209;DHT22;24016;52.102;11.584;2023-07-02T00:25:26;16.20;99.90
38209;DHT22;24016;52.102;11.584;2023-07-02T00:27:51;16.20;99.90
38209;DHT22;24016;52.102;11.584;2023-07-02T00:30:16;16.20;99.90
38209;DHT22;24016;52.102;11.584;2023-07-02T00:32:42;16.20;99.90
38209;DHT22;24016;52.102;11.584;2023-07-02T00:35:08;16.20;99.90
38209;DHT22;24016;52.102;11.584;2023-07-02T00:37:33;16.10;99.90
38209;DHT22;24016;52.102;11.584;2023-07-02T00:39:59;16.10;99.90
38209;DHT22;24016;52.102;11.584;2023-07-02T00:42:24;16.20;99.90
38209;DHT22;24016;52.102;11.584;2023-07-02T00:44:54;16.10;99.90
38209;DHT22;24016;52.102;11.584;2023-07-02T00:47:22;16.10;99.90
38209;DHT22;24016;52.102;11.584;2023-07-02T00:49:48;16.00;99.90
38209;DHT22;24016;52.102;11.584;2023-07-02T00:52:14;16.10;99.90
38209;DHT22;24016;52.102;11.584;2023-07-02T00:54:40;16.00;99.90
38209;DHT22;24016;52.102;11.584;2023-07-02T00:57:06;16.00;99.90
38209;DHT22;24016;52.102;11.584;2023-07-02T00:59:32;16.00;99.90
38209;DHT22;24016;52.102;11.584;2023-07-02T01:02:03;15.90;99.90
38209;DHT22;24016;52.102;11.584;2023-07-02T01:04:30;15.90;99.90
38209;DHT22;24016;52.102;11.584;2023-07-02T01:06:56;15.90;99.90
38209;DHT22;24016;52.102;11.584;2023-07-02T01:09:23;15.80;99.90
38209;DHT22;24016;52.102;11.584;2023-07-02T01:12:00;15.80;99.90
38209;DHT22;24016;52.102;11.584;2023-07-02T01:14:38;15.80;99.90
38209;DHT22;24016;52.102;11.584;2023-07-02T01:17:05;15.70;99.90
38209;DHT22;24016;52.102;11.584;2023-07-02T01:19:42;15.70;99.90
38209;DHT22;24016;52.102;11.584;2023-07-02T01:22:09;15.70;99.90
38209;DHT22;24016;52.102;11.584;2023-07-02T01:24:41;15.70;99.90
38209;DHT22;24016;52.102;11.584;2023-07-02T01:27:07;15.70;99.90
38209;DHT22;24016;52.102;11.584;2023-07-02T01:29:32;15.70;99.90
38209;DHT22;24016;52.102;11.584;2023-07-02T01:32:03;15.80;99.90
38209;DHT22;24016;52.102;11.584;2023-07-02T01:34:29;15.90;99.90
38209;DHT22;24016;52.102;11.584;2023-07-02T01:36:54;15.80;99.90
38209;DHT22;24016;52.102;11.584;2023-07-02T01:39:20;15.80;99.90
38209;DHT22;24016;52.102;11.584;2023-07-02T01:41:50;15.80;99.90
38209;DHT22;24016;52.102;11.584;2023-07-02T01:44:16;15.80;99.90
38209;DHT22;24016;52.102;11.584;2023-07-02T01:46:42;15.80;99.90
38209;DHT22;24016;52.102;11.584;2023-07-02T01:49:08;15.80;99.90
38209;DHT22;24016;52.102;11.584;2023-07-02T01:51:34;15.70;99.90
38209;DHT22;24016;52.102;11.584;2023-07-02T01:53:59;15.80;99.90
38209;DHT22;24016;52.102;11.584;2023-07-02T01:56:26;15.70;99.90
38209;DHT22;24016;52.102;11.584;2023-07-02T01:58:52;15.70;99.90
38209;DHT22;24016;52.102;11.584;2023-07-02T02:01:17;15.90;99.90
38209;DHT22;24016;52.102;11.584;2023-07-02T02:03:43;15.80;99.90
38209;DHT22;24016;52.102;11.584;2023-07-02T02:06:08;15.70;99.90
38209;DHT22;24016;52.102;11.584;2023-07-02T02:08:34;15.70;99.90
38209;DHT22;24016;52.102;11.584;2023-07-02T02:10:59;15.80;99.90
38209;DHT22;24016;52.102;11.584;2023-07-02T02:13:26;15.70;99.90
38209;DHT22;24016;52.102;11.584;2023-07-02T02:15:51;15.70;99.90
38209;DHT22;24016;52.102;11.584;2023-07-02T02:18:17;15.70;99.90
38209;DHT22;24016;52.102;11.584;2023-07-02T02:20:42;15.70;99.90
38209;DHT22;24016;52.102;11.584;2023-07-02T02:23:08;15.70;99.90
38209;DHT22;24016;52.102;11.584;2023-07-02T02:25:33;15.70;99.90
38209;DHT22;24016;52.102;11.584;2023-07-02T02:27:59;15.70;99.90
38209;DHT22;24016;52.102;11.584;2023-07-02T02:30:24;15.70;99.90
38209;DHT22;24016;52.102;11.584;2023-07-02T02:32:50;15.80;99.90
38209;DHT22;24016;52.102;11.584;2023-07-02T02:35:15;15.80;99.90
38209;DHT22;24016;52.102;11.584;2023-07-02T02:37:41;15.80;99.90
38209;DHT22;24016;52.102;11.584;2023-07-02T02:40:07;15.80;99.90
38209;DHT22;24016;52.102;11.584;2023-07-02T02:42:34;15.70;99.90
38209;DHT22;24016;52.102;11.584;2023-07-02T02:45:00;15.70;99.90
38209;DHT22;24016;52.102;11.584;2023-07-02T02:47:26;15.70;99.90
38209;DHT22;24016;52.102;11.584;2023-07-02T02:49:51;15.70;99.90
38209;DHT22;24016;52.102;11.584;2023-07-02T02:52:17;15.70;99.90
38209;DHT22;24016;52.102;11.584;2023-07-02T02:54:43;15.70;99.90
38209;DHT22;24016;52.102;11.584;2023-07-02T02:57:08;15.70;99.90
38209;DHT22;24016;52.102;11.584;2023-07-02T02:59:34;15.70;99.90
38209;DHT22;24016;52.102;11.584;2023-07-02T03:02:00;15.70;99.90
38209;DHT22;24016;52.102;11.584;2023-07-02T03:04:25;15.60;99.90
38209;DHT22;24016;52.102;11.584;2023-07-02T03:06:52;15.60;99.90
38209;DHT22;24016;52.102;11.584;2023-07-02T03:09:21;15.60;99.90
38209;DHT22;24016;52.102;11.584;2023-07-02T03:11:46;15.50;99.90
38209;DHT22;24016;52.102;11.584;2023-07-02T03:14:13;15.50;99.90
38209;DHT22;24016;52.102;11.584;2023-07-02T03:16:39;15.50;99.90
38209;DHT22;24016;52.102;11.584;2023-07-02T03:19:04;15.40;99.90
38209;DHT22;24016;52.102;11.584;2023-07-02T03:21:30;15.40;99.90
38209;DHT22;24016;52.102;11.584;2023-07-02T03:23:55;15.40;99.90
38209;DHT22;24016;52.102;11.584;2023-07-02T03:26:21;15.30;99.90
38209;DHT22;24016;52.102;11.584;2023-07-02T03:28:48;15.30;99.90
38209;DHT22;24016;52.102;11.584;2023-07-02T03:31:13;15.20;99.90
38209;DHT22;24016;52.102;11.584;2023-07-02T03:33:39;15.20;99.90
38209;DHT22;24016;52.102;11.584;2023-07-02T03:36:04;15.20;99.90
38209;DHT22;24016;52.102;11.584;2023-07-02T03:38:30;15.10;99.90
38209;DHT22;24016;52.102;11.584;2023-07-02T03:40:55;15.10;99.90
38209;DHT22;24016;52.102;11.584;2023-07-02T03:43:21;15.00;99.90
38209;DHT22;24016;52.102;11.584;2023-07-02T03:45:47;15.00;99.90
38209;DHT22;24016;52.102;11.584;2023-07-02T03:48:12;14.90;99.90
38209;DHT22;24016;52.102;11.584;2023-07-02T03:50:38;14.80;99.90
38209;DHT22;24016;52.102;11.584;2023-07-02T03:53:03;14.70;99.90
38209;DHT22;24016;52.102;11.584;2023-07-02T03:55:30;14.70;99.90
38209;DHT22;24016;52.102;11.584;2023-07-02T03:57:56;14.60;99.90
38209;DHT22;24016;52.102;11.584;2023-07-02T04:00:21;14.60;99.90
38209;DHT22;24016;52.102;11.584;2023-07-02T04:02:47;14.60;99.90
38209;DHT22;24016;52.102;11.584;2023-07-02T04:05:12;14.60;99.90
38209;DHT22;24016;52.102;11.584;2023-07-02T04:07:38;14.50;99.90
38209;DHT22;24016;52.102;11.584;2023-07-02T04:10:04;14.50;99.90
38209;DHT22;24016;52.102;11.584;2023-07-02T04:12:30;14.50;99.90
38209;DHT22;24016;52.102;11.584;2023-07-02T04:14:55;14.40;99.90
38209;DHT22;24016;52.102;11.584;2023-07-02T04:17:21;14.40;99.90
38209;DHT22;24016;52.102;11.584;2023-07-02T04:19:47;14.40;99.90
38209;DHT22;24016;52.102;11.584;2023-07-02T04:22:12;14.40;99.90
38209;DHT22;24016;52.102;11.584;2023-07-02T04:24:38;14.40;99.90
38209;DHT22;24016;52.102;11.584;2023-07-02T04:27:03;14.40;99.90
38209;DHT22;24016;52.102;11.584;2023-07-02T04:29:29;14.40;99.90
38209;DHT22;24016;52.102;11.584;2023-07-02T04:31:54;14.40;99.90
38209;DHT22;24016;52.102;11.584;2023-07-02T04:34:20;14.50;99.90
38209;DHT22;24016;52.102;11.584;2023-07-02T04:36:47;14.60;99.90
38209;DHT22;24016;52.102;11.584;2023-07-02T04:39:12;14.70;99.90
38209;DHT22;24016;52.102;11.584;2023-07-02T04:41:38;14.80;99.90
38209;DHT22;24016;52.102;11.584;2023-07-02T04:44:03;14.90;99.90
38209;DHT22;24016;52.102;11.584;2023-07-02T04:46:29;15.10;99.90
38209;DHT22;24016;52.102;11.584;2023-07-02T04:48:55;15.30;99.90
38209;DHT22;24016;52.102;11.584;2023-07-02T04:51:21;15.40;99.90
38209;DHT22;24016;52.102;11.584;2023-07-02T04:53:47;15.50;99.90
38209;DHT22;24016;52.102;11.584;2023-07-02T04:56:12;15.60;99.90
38209;DHT22;24016;52.102;11.584;2023-07-02T04:58:38;15.70;99.90
38209;DHT22;24016;52.102;11.584;2023-07-02T05:01:03;15.80;99.90
38209;DHT22;24016;52.102;11.584;2023-07-02T05:03:30;15.90;99.90
38209;DHT22;24016;52.102;11.584;2023-07-02T05:05:55;15.90;99.90
38209;DHT22;24016;52.102;11.584;2023-07-02T05:08:21;16.00;99.90
38209;DHT22;24016;52.102;11.584;2023-07-02T05:10:46;16.00;99.90
38209;DHT22;24016;52.102;11.584;2023-07-02T05:13:12;16.00;99.90
38209;DHT22;24016;52.102;11.584;2023-07-02T05:15:37;16.00;99.90
38209;DHT22;24016;52.102;11.584;2023-07-02T05:18:03;16.00;99.90
38209;DHT22;24016;52.102;11.584;2023-07-02T05:20:28;16.10;99.90
38209;DHT22;24016;52.102;11.584;2023-07-02T05:22:53;16.10;99.90
38209;DHT22;24016;52.102;11.584;2023-07-02T05:25:19;16.10;99.90
38209;DHT22;24016;52.102;11.584;2023-07-02T05:27:45;16.10;99.90
38209;DHT22;24016;52.102;11.584;2023-07-02T05:30:11;16.10;99.90
38209;DHT22;24016;52.102;11.584;2023-07-02T05:32:36;16.30;99.90
38209;DHT22;24016;52.102;11.584;2023-07-02T05:35:02;16.40;99.90
38209;DHT22;24016;52.102;11.584;2023-07-02T05:37:28;16.50;99.90
38209;DHT22;24016;52.102;11.584;2023-07-02T05:39:54;16.50;99.90
38209;DHT22;24016;52.102;11.584;2023-07-02T05:42:20;16.50;99.90
38209;DHT22;24016;52.102;11.584;2023-07-02T05:44:46;16.50;99.90
38209;DHT22;24016;52.102;11.584;2023-07-02T05:47:11;16.60;99.90
38209;DHT22;24016;52.102;11.584;2023-07-02T05:49:37;16.60;99.90
38209;DHT22;24016;52.102;11.584;2023-07-02T05:52:02;16.70;99.90
38209;DHT22;24016;52.102;11.584;2023-07-02T05:54:28;16.70;99.90
38209;DHT22;24016;52.102;11.584;2023-07-02T05:56:53;16.80;99.90
38209;DHT22;24016;52.102;11.584;2023-07-02T05:59:19;16.70;99.90
38209;DHT22;24016;52.102;11.584;2023-07-02T06:01:45;16.80;99.90
38209;DHT22;24016;52.102;11.584;2023-07-02T06:04:10;16.80;99.90
38209;DHT22;24016;52.102;11.584;2023-07-02T06:06:36;16.90;99.90
38209;DHT22;24016;52.102;11.584;2023-07-02T06:09:01;16.90;99.90
38209;DHT22;24016;52.102;11.584;2023-07-02T06:11:27;16.90;99.90
38209;DHT22;24016;52.102;11.584;2023-07-02T06:13:52;16.90;99.90
38209;DHT22;24016;52.102;11.584;2023-07-02T06:16:19;17.00;99.90
38209;DHT22;24016;52.102;11.584;2023-07-02T06:18:44;17.10;99.90
38209;DHT22;24016;52.102;11.584;2023-07-02T06:21:09;17.20;99.90
38209;DHT22;24016;52.102;11.584;2023-07-02T06:23:42;17.30;99.90
38209;DHT22;24016;52.102;11.584;2023-07-02T06:26:08;17.40;99.90
38209;DHT22;24016;52.102;11.584;2023-07-02T06:28:33;17.40;99.90
38209;DHT22;24016;52.102;11.584;2023-07-02T06:30:59;17.30;99.90
38209;DHT22;24016;52.102;11.584;2023-07-02T06:33:24;17.30;99.90
38209;DHT22;24016;52.102;11.584;2023-07-02T06:35:50;17.30;99.90
38209;DHT22;24016;52.102;11.584;2023-07-02T06:38:16;17.20;99.90
38209;DHT22;24016;52.102;11.584;2023-07-02T06:40:41;17.30;99.90
38209;DHT22;24016;52.102;11.584;2023-07-02T06:43:07;17.20;99.90
38209;DHT22;24016;52.102;11.584;2023-07-02T06:45:32;17.20;99.90
38209;DHT22;24016;52.102;11.584;2023-07-02T06:47:58;17.20;99.90
38209;DHT22;24016;52.102;11.584;2023-07-02T06:50:23;17.10;99.90
38209;DHT22;24016;52.102;11.584;2023-07-02T06:52:49;17.00;99.90
38209;DHT22;24016;52.102;11.584;2023-07-02T06:55:14;17.00;99.90
38209;DHT22;24016;52.102;11.584;2023-07-02T06:57:44;17.00;99.90
38209;DHT22;24016;52.102;11.584;2023-07-02T07:00:11;16.90;99.90
38209;DHT22;24016;52.102;11.584;2023-07-02T07:02:37;16.80;99.90
38209;DHT22;24016;52.102;11.584;2023-07-02T07:05:03;16.70;99.90
38209;DHT22;24016;52.102;11.584;2023-07-02T07:07:29;16.50;99.90
38209;DHT22;24016;52.102;11.584;2023-07-02T07:09:55;16.20;99.90
38209;DHT22;24016;52.102;11.584;2023-07-02T07:12:20;15.80;99.90
38209;DHT22;24016;52.102;11.584;2023-07-02T07:14:46;15.40;99.90
38209;DHT22;24016;52.102;11.584;2023-07-02T07:17:12;15.00;99.90
38209;DHT22;24016;52.102;11.584;2023-07-02T07:19:37;14.80;99.90
38209;DHT22;24016;52.102;11.584;2023-07-02T07:22:03;14.70;99.90
38209;DHT22;24016;52.102;11.584;2023-07-02T07:24:28;14.70;99.90
38209;DHT22;24016;52.102;11.584;2023-07-02T07:26:54;14.70;99.90
38209;DHT22;24016;52.102;11.584;2023-07-02T07:29:19;14.70;99.90
38209;DHT22;24016;52.102;11.584;2023-07-02T07:31:45;14.70;99.90
38209;DHT22;24016;52.102;11.584;2023-07-02T07:34:11;14.70;99.90
38209;DHT22;24016;52.102;11.584;2023-07-02T07:36:37;14.70;99.90
38209;DHT22;24016;52.102;11.584;2023-07-02T07:39:02;14.60;99.90
38209;DHT22;24016;52.102;11.584;2023-07-02T07:41:28;14.60;99.90
38209;DHT22;24016;52.102;11.584;2023-07-02T07:43:54;14.70;99.90
38209;DHT22;24016;52.102;11.584;2023-07-02T07:46:19;14.80;99.90
38209;DHT22;24016;52.102;11.584;2023-07-02T07:48:45;14.60;99.90
38209;DHT22;24016;52.102;11.584;2023-07-02T07:51:10;14.70;99.90
38209;DHT22;24016;52.102;11.584;2023-07-02T07:53:39;14.60;99.90
38209;DHT22;24016;52.102;11.584;2023-07-02T07:56:05;14.70;99.90
38209;DHT22;24016;52.102;11.584;2023-07-02T07:58:31;14.90;99.90
38209;DHT22;24016;52.102;11.584;2023-07-02T08:00:57;14.90;99.90
38209;DHT22;24016;52.102;11.584;2023-07-02T08:03:23;15.00;99.90
38209;DHT22;24016;52.102;11.584;2023-07-02T08:05:48;15.20;99.90
38209;DHT22;24016;52.102;11.584;2023-07-02T08:08:14;15.40;99.90
38209;DHT22;24016;52.102;11.584;2023-07-02T08:10:39;15.90;99.90
38209;DHT22;24016;52.102;11.584;2023-07-02T08:13:05;16.50;99.90
38209;DHT22;24016;52.102;11.584;2023-07-02T08:15:30;16.90;99.90
38209;DHT22;24016;52.102;11.584;2023-07-02T08:17:56;17.00;99.90
38209;DHT22;24016;52.102;11.584;2023-07-02T08:20:24;17.00;99.90
38209;DHT22;24016;52.102;11.584;2023-07-02T08:22:49;17.20;99.90
38209;DHT22;24016;52.102;11.584;2023-07-02T08:25:17;17.50;99.90
38209;DHT22;24016;52.102;11.584;2023-07-02T08:27:43;18.00;99.90
38209;DHT22;24016;52.102;11.584;2023-07-02T08:30:09;18.40;99.90
38209;DHT22;24016;52.102;11.584;2023-07-02T08:32:34;18.90;99.90
38209;DHT22;24016;52.102;11.584;2023-07-02T08:35:00;19.10;99.90
38209;DHT22;24016;52.102;11.584;2023-07-02T08:37:26;19.20;99.90
38209;DHT22;24016;52.102;11.584;2023-07-02T08:39:51;19.40;99.90
38209;DHT22;24016;52.102;11.584;2023-07-02T08:42:17;20.10;99.90
38209;DHT22;24016;52.102;11.584;2023-07-02T08:44:46;21.00;99.90
38209;DHT22;24016;52.102;11.584;2023-07-02T08:47:12;21.10;99.90
38209;DHT22;24016;52.102;11.584;2023-07-02T08:49:38;21.20;99.90
38209;DHT22;24016;52.102;11.584;2023-07-02T08:52:04;21.30;99.90
38209;DHT22;24016;52.102;11.584;2023-07-02T08:54:29;21.50;99.90
38209;DHT22;24016;52.102;11.584;2023-07-02T08:56:55;21.60;99.90
38209;DHT22;24016;52.102;11.584;2023-07-02T08:59:21;21.60;99.90
38209;DHT22;24016;52.102;11.584;2023-07-02T09:01:50;21.10;99.90
38209;DHT22;24016;52.102;11.584;2023-07-02T09:04:21;21.20;99.90
38209;DHT22;24016;52.102;11.584;2023-07-02T09:06:49;21.10;99.90
38209;DHT22;24016;52.102;11.584;2023-07-02T09:09:14;21.60;99.90
38209;DHT22;24016;52.102;11.584;2023-07-02T09:11:48;22.10;99.90
38209;DHT22;24016;52.102;11.584;2023-07-02T09:14:24;21.80;99.90
38209;DHT22;24016;52.102;11.584;2023-07-02T09:17:04;21.40;99.90
38209;DHT22;24016;52.102;11.584;2023-07-02T09:19:30;20.60;99.90
38209;DHT22;24016;52.102;11.584;2023-07-02T09:21:58;19.80;99.90
38209;DHT22;24016;52.102;11.584;2023-07-02T09:24:30;19.40;99.90
38209;DHT22;24016;52.102;11.584;2023-07-02T09:27:00;19.20;99.90
38209;DHT22;24016;52.102;11.584;2023-07-02T09:29:28;19.20;99.90
38209;DHT22;24016;52.102;11.584;2023-07-02T09:31:55;19.30;99.90
38209;DHT22;24016;52.102;11.584;2023-07-02T09:34:33;19.30;99.90
38209;DHT22;24016;52.102;11.584;2023-07-02T09:36:59;19.10;99.90
38209;DHT22;24016;52.102;11.584;2023-07-02T09:39:27;18.90;99.90
38209;DHT22;24016;52.102;11.584;2023-07-02T09:41:55;19.40;99.90
38209;DHT22;24016;52.102;11.584;2023-07-02T09:44:23;20.60;99.90
38209;DHT22;24016;52.102;11.584;2023-07-02T09:47:02;21.50;99.90
38209;DHT22;24016;52.102;11.584;2023-07-02T09:49:35;21.90;99.90
38209;DHT22;24016;52.102;11.584;2023-07-02T09:52:02;21.30;99.90
38209;DHT22;24016;52.102;11.584;2023-07-02T09:54:28;20.80;99.90
38209;DHT22;24016;52.102;11.584;2023-07-02T09:56:55;20.20;99.90
38209;DHT22;24016;52.102;11.584;2023-07-02T09:59:20;20.30;99.90
38209;DHT22;24016;52.102;11.584;2023-07-02T10:01:47;20.90;99.90
38209;DHT22;24016;52.102;11.584;2023-07-02T10:04:16;21.70;99.90
38209;DHT22;24016;52.102;11.584;2023-07-02T10:06:54;21.40;99.90
38209;DHT22;24016;52.102;11.584;2023-07-02T10:09:21;21.00;99.90
38209;DHT22;24016;52.102;11.584;2023-07-02T10:11:47;21.10;99.90
38209;DHT22;24016;52.102;11.584;2023-07-02T10:14:13;21.30;99.90
38209;DHT22;24016;52.102;11.584;2023-07-02T10:16:53;21.20;99.90
38209;DHT22;24016;52.102;11.584;2023-07-02T10:19:19;21.80;99.90
38209;DHT22;24016;52.102;11.584;2023-07-02T10:21:45;22.10;99.90
38209;DHT22;24016;52.102;11.584;2023-07-02T10:24:15;21.80;99.90
38209;DHT22;24016;52.102;11.584;2023-07-02T10:27:01;21.90;99.90
38209;DHT22;24016;52.102;11.584;2023-07-02T10:29:28;22.20;99.90
38209;DHT22;24016;52.102;11.584;2023-07-02T10:31:56;22.00;99.90
38209;DHT22;24016;52.102;11.584;2023-07-02T10:34:48;21.90;99.90
38209;DHT22;24016;52.102;11.584;2023-07-02T10:37:13;21.80;99.90
38209;DHT22;24016;52.102;11.584;2023-07-02T10:39:39;21.80;99.90
38209;DHT22;24016;52.102;11.584;2023-07-02T10:42:09;21.80;99.90
38209;DHT22;24016;52.102;11.584;2023-07-02T10:44:55;21.70;99.90
38209;DHT22;24016;52.102;11.584;2023-07-02T10:47:20;22.00;99.90
38209;DHT22;24016;52.102;11.584;2023-07-02T10:49:46;23.10;99.90
38209;DHT22;24016;52.102;11.584;2023-07-02T10:52:12;24.10;99.90
38209;DHT22;24016;52.102;11.584;2023-07-02T10:54:42;23.90;99.90
38209;DHT22;24016;52.102;11.584;2023-07-02T10:57:09;23.50;99.90
38209;DHT22;24016;52.102;11.584;2023-07-02T10:59:35;23.60;99.90
38209;DHT22;24016;52.102;11.584;2023-07-02T11:02:00;23.70;99.90
38209;DHT22;24016;52.102;11.584;2023-07-02T11:04:32;23.30;99.90
38209;DHT22;24016;52.102;11.584;2023-07-02T11:06:59;22.10;99.90
38209;DHT22;24016;52.102;11.584;2023-07-02T11:09:24;21.20;99.90
38209;DHT22;24016;52.102;11.584;2023-07-02T11:11:55;21.10;99.90
38209;DHT22;24016;52.102;11.584;2023-07-02T11:14:31;20.80;99.90
38209;DHT22;24016;52.102;11.584;2023-07-02T11:16:58;20.80;99.90
38209;DHT22;24016;52.102;11.584;2023-07-02T11:19:24;21.80;99.90
38209;DHT22;24016;52.102;11.584;2023-07-02T11:21:55;22.70;99.90
38209;DHT22;24016;52.102;11.584;2023-07-02T11:24:36;23.50;99.90
38209;DHT22;24016;52.102;11.584;2023-07-02T11:27:03;24.10;99.90
38209;DHT22;24016;52.102;11.584;2023-07-02T11:29:31;24.30;99.90
38209;DHT22;24016;52.102;11.584;2023-07-02T11:32:10;24.30;99.10
38209;DHT22;24016;52.102;11.584;2023-07-02T11:34:37;24.20;99.90
38209;DHT22;24016;52.102;11.584;2023-07-02T11:37:03;23.40;99.90
38209;DHT22;24016;52.102;11.584;2023-07-02T11:39:30;22.60;99.90
38209;DHT22;24016;52.102;11.584;2023-07-02T11:41:55;22.70;99.90
38209;DHT22;24016;52.102;11.584;2023-07-02T11:44:21;23.20;99.90
38209;DHT22;24016;52.102;11.584;2023-07-02T11:46:47;23.50;99.90
38209;DHT22;24016;52.102;11.584;2023-07-02T11:49:13;23.00;99.90
38209;DHT22;24016;52.102;11.584;2023-07-02T11:51:40;22.80;99.90
38209;DHT22;24016;52.102;11.584;2023-07-02T11:54:06;23.00;99.30
38209;DHT22;24016;52.102;11.584;2023-07-02T11:56:32;23.90;98.90
38209;DHT22;24016;52.102;11.584;2023-07-02T11:58:58;24.60;98.50
38209;DHT22;24016;52.102;11.584;2023-07-02T12:01:23;25.20;97.50
38209;DHT22;24016;52.102;11.584;2023-07-02T12:03:49;24.60;96.90
38209;DHT22;24016;52.102;11.584;2023-07-02T12:06:14;24.00;97.20
38209;DHT22;24016;52.102;11.584;2023-07-02T12:08:40;23.60;97.80
38209;DHT22;24016;52.102;11.584;2023-07-02T12:11:06;22.90;99.30
38209;DHT22;24016;52.102;11.584;2023-07-02T12:13:31;22.40;99.90
38209;DHT22;24016;52.102;11.584;2023-07-02T12:15:57;22.20;99.90
38209;DHT22;24016;52.102;11.584;2023-07-02T12:18:22;22.20;99.70
38209;DHT22;24016;52.102;11.584;2023-07-02T12:20:48;21.80;99.90
38209;DHT22;24016;52.102;11.584;2023-07-02T12:23:13;22.20;99.90
38209;DHT22;24016;52.102;11.584;2023-07-02T12:25:39;23.10;99.20
38209;DHT22;24016;52.102;11.584;2023-07-02T12:28:05;24.00;98.60
38209;DHT22;24016;52.102;11.584;2023-07-02T12:30:31;24.70;96.50
38209;DHT22;24016;52.102;11.584;2023-07-02T12:32:57;25.30;97.70
38209;DHT22;24016;52.102;11.584;2023-07-02T12:35:22;25.10;95.90
38209;DHT22;24016;52.102;11.584;2023-07-02T12:37:50;24.40;97.40
38209;DHT22;24016;52.102;11.584;2023-07-02T12:40:17;23.70;96.80
38209;DHT22;24016;52.102;11.584;2023-07-02T12:42:44;23.00;98.30
38209;DHT22;24016;52.102;11.584;2023-07-02T12:45:10;22.20;97.10
38209;DHT22;24016;52.102;11.584;2023-07-02T12:47:37;22.30;96.90
38209;DHT22;24016;52.102;11.584;2023-07-02T12:50:03;23.00;96.60
38209;DHT22;24016;52.102;11.584;2023-07-02T12:52:29;23.80;95.80
38209;DHT22;24016;52.102;11.584;2023-07-02T12:54:55;24.30;94.50
38209;DHT22;24016;52.102;11.584;2023-07-02T12:57:20;25.00;95.00
38209;DHT22;24016;52.102;11.584;2023-07-02T12:59:46;25.80;92.20
38209;DHT22;24016;52.102;11.584;2023-07-02T13:02:11;25.70;93.70
38209;DHT22;24016;52.102;11.584;2023-07-02T13:04:38;25.50;93.00
38209;DHT22;24016;52.102;11.584;2023-07-02T13:07:04;24.70;92.60
38209;DHT22;24016;52.102;11.584;2023-07-02T13:09:29;24.00;94.10
38209;DHT22;24016;52.102;11.584;2023-07-02T13:11:55;23.90;94.40
38209;DHT22;24016;52.102;11.584;2023-07-02T13:14:21;23.20;93.50
38209;DHT22;24016;52.102;11.584;2023-07-02T13:16:46;23.60;93.70
38209;DHT22;24016;52.102;11.584;2023-07-02T13:19:13;24.00;92.70
38209;DHT22;24016;52.102;11.584;2023-07-02T13:21:38;24.70;92.50
38209;DHT22;24016;52.102;11.584;2023-07-02T13:24:04;25.20;91.90
38209;DHT22;24016;52.102;11.584;2023-07-02T13:26:30;24.40;91.50
38209;DHT22;24016;52.102;11.584;2023-07-02T13:28:55;23.60;92.50
38209;DHT22;24016;52.102;11.584;2023-07-02T13:31:21;23.30;92.40
38209;DHT22;24016;52.102;11.584;2023-07-02T13:33:46;23.40;93.50
38209;DHT22;24016;52.102;11.584;2023-07-02T13:36:12;23.00;92.80
38209;DHT22;24016;52.102;11.584;2023-07-02T13:38:37;22.90;92.50
38209;DHT22;24016;52.102;11.584;2023-07-02T13:41:03;22.90;90.80
38209;DHT22;24016;52.102;11.584;2023-07-02T13:43:29;23.60;90.90
38209;DHT22;24016;52.102;11.584;2023-07-02T13:45:54;24.30;90.70
38209;DHT22;24016;52.102;11.584;2023-07-02T13:48:20;24.80;88.60
38209;DHT22;24016;52.102;11.584;2023-07-02T13:50:46;24.70;88.70
38209;DHT22;24016;52.102;11.584;2023-07-02T13:53:11;23.90;89.90
38209;DHT22;24016;52.102;11.584;2023-07-02T13:55:37;23.30;90.20
38209;DHT22;24016;52.102;11.584;2023-07-02T13:58:02;22.80;91.00
38209;DHT22;24016;52.102;11.584;2023-07-02T14:00:28;23.40;91.40
38209;DHT22;24016;52.102;11.584;2023-07-02T14:02:54;24.10;91.00
38209;DHT22;24016;52.102;11.584;2023-07-02T14:05:20;24.00;91.70
38209;DHT22;24016;52.102;11.584;2023-07-02T14:07:46;23.30;90.70
38209;DHT22;24016;52.102;11.584;2023-07-02T14:10:12;22.60;91.80
38209;DHT22;24016;52.102;11.584;2023-07-02T14:12:39;22.40;92.30
38209;DHT22;24016;52.102;11.584;2023-07-02T14:15:05;23.00;91.60
38209;DHT22;24016;52.102;11.584;2023-07-02T14:17:31;23.00;92.00
38209;DHT22;24016;52.102;11.584;2023-07-02T14:19:56;22.90;91.40
38209;DHT22;24016;52.102;11.584;2023-07-02T14:22:22;23.00;92.00
38209;DHT22;24016;52.102;11.584;2023-07-02T14:24:47;23.20;91.70
38209;DHT22;24016;52.102;11.584;2023-07-02T14:27:13;23.70;91.50
38209;DHT22;24016;52.102;11.584;2023-07-02T14:29:38;23.50;92.00
38209;DHT22;24016;52.102;11.584;2023-07-02T14:32:04;23.50;91.60
38209;DHT22;24016;52.102;11.584;2023-07-02T14:34:30;23.10;91.70
38209;DHT22;24016;52.102;11.584;2023-07-02T14:36:56;22.50;91.60
38209;DHT22;24016;52.102;11.584;2023-07-02T14:39:22;22.40;92.30
38209;DHT22;24016;52.102;11.584;2023-07-02T14:41:48;23.00;92.20
38209;DHT22;24016;52.102;11.584;2023-07-02T14:44:13;23.50;93.20
38209;DHT22;24016;52.102;11.584;2023-07-02T14:46:39;23.60;93.20
38209;DHT22;24016;52.102;11.584;2023-07-02T14:49:05;23.60;92.90
38209;DHT22;24016;52.102;11.584;2023-07-02T14:51:30;23.40;93.10
38209;DHT22;24016;52.102;11.584;2023-07-02T14:53:56;22.80;93.30
38209;DHT22;24016;52.102;11.584;2023-07-02T14:56:22;21.90;93.60
38209;DHT22;24016;52.102;11.584;2023-07-02T14:58:48;21.30;94.00
38209;DHT22;24016;52.102;11.584;2023-07-02T15:01:14;21.30;94.40
38209;DHT22;24016;52.102;11.584;2023-07-02T15:03:41;21.60;95.00
38209;DHT22;24016;52.102;11.584;2023-07-02T15:06:12;21.80;93.80
38209;DHT22;24016;52.102;11.584;2023-07-02T15:08:38;21.90;93.90
38209;DHT22;24016;52.102;11.584;2023-07-02T15:11:05;22.20;93.30